Time;durP1;ratioP1;P1;durP2;ratioP2;P2;SDS_P1;SDS_P2;PMS_P1;PMS_P2;Temp;Humidity;BMP_temperature;BMP_pressure;BME280_temperature;BME280_humidity;BME280_pressure;Samples;Min_cycle;Max_cycle;Signal;HPM_P1;HPM_P2
2021/08/16 00:00:05;;;;;;;;;2.00;2.00;;;;;27.63;41.34;101282.53;5014144;28;45673;-69
2021/08/16 00:02:30;;;;;;;;;2.25;2.25;;;;;27.62;40.90;101278.22;5014218;28;45480;-69
2021/08/16 00:04:56;;;;;;;;;2.00;2.00;;;;;27.54;40.73;101265.06;5015903;28;46777;-69
2021/08/16 00:07:21;;;;;;;;;2.50;1.75;;;;;27.62;41.10;101276.38;5012440;28;45352;-69
2021/08/16 00:09:47;;;;;;;;;2.00;1.00;;;;;27.62;41.30;101273.69;5012388;28;45321;-69
2021/08/16 00:12:12;;;;;;;;;2.00;2.00;;;;;27.63;40.74;101274.53;5013704;28;45270;-69
2021/08/16 00:14:37;;;;;;;;;2.00;1.75;;;;;27.60;41.44;101273.09;5013849;28;46202;-70
2021/08/16 00:17:03;;;;;;;;;2.75;2.75;;;;;27.60;40.98;101275.75;5015206;28;45386;-69
2021/08/16 00:19:29;;;;;;;;;2.00;2.00;;;;;27.61;40.98;101277.38;5014470;28;45481;-69
2021/08/16 00:21:54;;;;;;;;;1.00;1.00;;;;;27.59;41.08;101276.78;5013931;28;45494;-69
2021/08/16 00:24:20;;;;;;;;;2.50;1.00;;;;;27.61;41.32;101280.06;5013536;28;45993;-69
2021/08/16 00:26:47;;;;;;;;;3.00;3.00;;;;;27.59;40.81;101273.28;5013302;28;45512;-69
2021/08/16 00:29:12;;;;;;;;;1.50;1.50;;;;;27.60;40.72;101274.94;5014072;28;45341;-69
2021/08/16 00:31:37;;;;;;;;;2.25;2.25;;;;;27.61;41.10;101274.72;5015438;28;45316;-69
2021/08/16 00:34:03;;;;;;;;;1.00;1.00;;;;;27.60;40.81;101277.59;5013373;28;45481;-69
2021/08/16 00:36:28;;;;;;;;;2.00;2.00;;;;;27.60;41.29;101273.09;5013268;28;45497;-69
2021/08/16 00:38:53;;;;;;;;;1.75;1.75;;;;;27.61;40.71;101276.59;5013809;28;46326;-69
2021/08/16 00:41:19;;;;;;;;;2.00;2.00;;;;;27.57;41.15;101273.50;5013361;28;45327;-69
2021/08/16 00:43:45;;;;;;;;;2.00;2.00;;;;;27.61;40.92;101268.56;5014499;28;45359;-69
2021/08/16 00:46:13;;;;;;;;;0.50;0.50;;;;;27.59;41.04;101270.59;5011929;28;46374;-69
2021/08/16 00:48:39;;;;;;;;;1.00;1.00;;;;;27.61;40.61;101271.25;5012024;28;45444;-69
2021/08/16 00:51:04;;;;;;;;;1.75;1.75;;;;;27.61;41.06;101274.72;5013419;28;45358;-69
2021/08/16 00:53:30;;;;;;;;;1.00;1.00;;;;;27.62;40.83;101271.03;5013313;28;45516;-69
2021/08/16 00:55:56;;;;;;;;;3.00;1.00;;;;;27.62;40.67;101270.19;5015145;28;45534;-69
2021/08/16 00:58:22;;;;;;;;;2.00;2.00;;;;;27.63;41.11;101266.50;5011108;28;45343;-69
2021/08/16 01:00:48;;;;;;;;;3.25;2.00;;;;;27.59;41.14;101260.75;5013153;28;45412;-69
2021/08/16 01:03:14;;;;;;;;;2.00;2.00;;;;;27.62;41.06;101263.00;5013190;28;46286;-69
2021/08/16 01:05:39;;;;;;;;;5.00;2.75;;;;;27.63;41.14;101267.34;4994829;28;45530;-69
2021/08/16 01:08:05;;;;;;;;;2.00;1.25;;;;;27.61;41.17;101266.69;5014772;28;45345;-69
2021/08/16 01:10:31;;;;;;;;;2.25;2.25;;;;;27.63;40.77;101270.00;5013543;28;45471;-69
2021/08/16 01:13:00;;;;;;;;;2.00;1.00;;;;;27.63;41.20;101266.50;5012810;28;47113;-69
2021/08/16 01:15:28;;;;;;;;;2.00;1.00;;;;;27.65;40.74;101271.63;5013053;28;45361;-69
2021/08/16 01:17:54;;;;;;;;;2.50;2.50;;;;;27.54;40.92;101257.03;5013257;28;46003;-69
2021/08/16 01:20:19;;;;;;;;;2.00;1.25;;;;;27.63;40.55;101270.00;5013366;28;45560;-69
2021/08/16 01:22:44;;;;;;;;;1.00;1.00;;;;;27.62;41.26;101271.03;5001582;28;45345;-70
2021/08/16 01:25:11;;;;;;;;;1.25;1.00;;;;;27.64;40.63;101273.47;5011196;28;45265;-69
2021/08/16 01:27:37;;;;;;;;;1.75;1.75;;;;;27.64;41.09;101268.13;5011503;28;45501;-69
2021/08/16 01:30:06;;;;;;;;;2.00;2.00;;;;;27.65;40.77;101271.63;5002470;28;45602;-69
2021/08/16 01:32:32;;;;;;;;;4.00;2.00;;;;;27.63;40.61;101264.66;5015960;28;46118;-69
2021/08/16 01:34:57;;;;;;;;;2.00;2.00;;;;;27.51;41.25;101253.75;5018356;28;45343;-69
2021/08/16 01:37:23;;;;;;;;;1.00;1.00;;;;;27.63;41.26;101274.53;5016424;28;45285;-69
2021/08/16 01:39:48;;;;;;;;;2.00;2.00;;;;;27.54;40.63;101243.69;5016287;28;45478;-69
2021/08/16 01:42:13;;;;;;;;;2.67;2.00;;;;;27.63;41.10;101274.53;5016303;28;45462;-69
2021/08/16 01:44:39;;;;;;;;;3.00;2.00;;;;;27.62;40.42;101267.53;5016195;28;48232;-69
2021/08/16 01:47:04;;;;;;;;;1.00;1.00;;;;;27.61;40.56;101261.34;5017845;28;45325;-69
2021/08/16 01:49:30;;;;;;;;;2.00;1.00;;;;;27.52;40.76;101252.75;5016863;28;45475;-69
2021/08/16 01:51:55;;;;;;;;;2.00;2.00;;;;;27.59;40.69;101263.41;5016107;28;45399;-69
2021/08/16 01:54:21;;;;;;;;;0.25;0.25;;;;;27.56;41.18;101255.00;5015810;28;45466;-69
2021/08/16 01:56:46;;;;;;;;;1.00;1.00;;;;;27.58;40.62;101259.13;5016199;28;45403;-69
2021/08/16 01:59:12;;;;;;;;;1.50;1.50;;;;;27.61;40.61;101260.56;5016756;28;45229;-69
2021/08/16 02:01:38;;;;;;;;;1.25;1.25;;;;;27.61;41.23;101265.91;5017720;28;47048;-69
2021/08/16 02:04:03;;;;;;;;;1.00;1.00;;;;;27.60;41.19;101261.56;5014499;28;45350;-69
2021/08/16 02:06:29;;;;;;;;;1.75;1.75;;;;;27.57;41.11;101260.13;5014506;28;45416;-69
2021/08/16 02:08:55;;;;;;;;;1.00;1.00;;;;;27.57;40.87;101268.16;5015663;28;45361;-69
2021/08/16 02:11:21;;;;;;;;;0.50;0.50;;;;;27.60;41.01;101269.59;5016002;28;46214;-69
2021/08/16 02:13:46;;;;;;;;;1.50;1.50;;;;;27.56;40.83;101265.69;5017810;28;45292;-69
2021/08/16 02:16:13;;;;;;;;;1.25;1.00;;;;;27.61;40.91;101265.91;5015827;28;45433;-70
2021/08/16 02:18:38;;;;;;;;;1.00;1.00;;;;;27.61;40.98;101271.25;5015886;28;45458;-69
2021/08/16 02:21:04;;;;;;;;;1.00;1.00;;;;;27.61;40.72;101273.91;5015714;28;46154;-69
2021/08/16 02:23:29;;;;;;;;;3.00;0.75;;;;;27.59;41.09;101260.75;5015485;28;45450;-69
2021/08/16 02:25:55;;;;;;;;;3.25;1.25;;;;;27.62;40.72;101280.88;5017797;28;45626;-69
2021/08/16 02:28:20;;;;;;;;;1.00;1.00;;;;;27.52;41.37;101262.59;5015747;28;45537;-69
2021/08/16 02:30:47;;;;;;;;;1.00;1.00;;;;;27.63;41.01;101277.19;5015238;28;46164;-69
2021/08/16 02:33:13;;;;;;;;;1.25;1.00;;;;;27.62;40.96;101271.03;5015595;28;45425;-69
2021/08/16 02:35:40;;;;;;;;;1.00;1.00;;;;;27.57;41.09;101265.47;5015093;28;45498;-68
2021/08/16 02:38:06;;;;;;;;;1.25;0.75;;;;;27.61;41.26;101271.25;5016899;28;45347;-69
2021/08/16 02:40:32;;;;;;;;;1.75;0.00;;;;;27.52;41.19;101252.75;5016211;28;45351;-69
2021/08/16 02:42:57;;;;;;;;;1.00;1.00;;;;;27.62;41.10;101271.03;5012609;28;45383;-69
2021/08/16 02:45:23;;;;;;;;;1.00;1.00;;;;;27.35;41.15;101233.63;5014018;28;45308;-69
2021/08/16 02:47:48;;;;;;;;;1.00;1.00;;;;;27.62;40.63;101262.19;5015561;28;45511;-69
2021/08/16 02:50:14;;;;;;;;;1.50;1.00;;;;;27.64;40.41;101265.47;5014924;28;45490;-69
2021/08/16 02:52:39;;;;;;;;;1.00;1.00;;;;;27.64;41.13;101260.13;5017295;28;45380;-69
2021/08/16 02:55:05;;;;;;;;;2.25;1.00;;;;;27.64;40.54;101262.78;5015355;28;45411;-69
2021/08/16 02:57:30;;;;;;;;;1.67;0.67;;;;;27.59;40.46;101255.41;5015364;28;45543;-70
2021/08/16 02:59:56;;;;;;;;;1.75;1.75;;;;;27.59;40.69;101249.22;5015195;28;47143;-69
2021/08/16 03:02:22;;;;;;;;;3.00;0.50;;;;;27.63;40.57;101263.84;5015201;28;45317;-70
2021/08/16 03:04:47;;;;;;;;;2.00;0.25;;;;;27.63;40.48;101264.66;5016888;28;45230;-69
2021/08/16 03:07:13;;;;;;;;;1.50;1.00;;;;;27.55;40.72;101251.50;5014967;28;45376;-69
2021/08/16 03:09:39;;;;;;;;;2.50;2.00;;;;;27.63;40.72;101267.34;5014756;28;46019;-69
2021/08/16 03:12:04;;;;;;;;;3.00;1.00;;;;;27.62;41.08;101260.34;5014954;28;45487;-68
2021/08/16 03:14:30;;;;;;;;;1.50;1.50;;;;;27.63;41.14;101270.00;5015090;28;45490;-69
2021/08/16 03:16:55;;;;;;;;;0.50;0.50;;;;;27.61;41.01;101257.88;5016846;28;45343;-69
2021/08/16 03:19:20;;;;;;;;;1.00;1.00;;;;;27.59;40.67;101252.72;5014389;28;45533;-69
2021/08/16 03:21:46;;;;;;;;;2.00;1.00;;;;;27.61;41.08;101266.69;5012744;28;45446;-69
2021/08/16 03:24:11;;;;;;;;;1.25;0.75;;;;;27.60;41.29;101254.38;5013398;28;45362;-69
2021/08/16 03:26:36;;;;;;;;;1.33;1.33;;;;;27.60;40.56;101258.91;5014912;28;45414;-69
2021/08/16 03:29:02;;;;;;;;;1.75;1.75;;;;;27.61;40.83;101261.34;5016169;28;46125;-69
2021/08/16 03:31:27;;;;;;;;;1.00;1.00;;;;;27.59;41.14;101257.25;5013322;28;45259;-69
2021/08/16 03:33:53;;;;;;;;;1.75;1.75;;;;;27.61;41.19;101257.88;5014399;28;45460;-69
2021/08/16 03:36:19;;;;;;;;;0.25;0.25;;;;;27.59;41.15;101254.56;5014581;28;45607;-69
2021/08/16 03:38:44;;;;;;;;;1.00;1.00;;;;;27.55;40.93;101246.16;5014567;28;45710;-69
2021/08/16 03:41:09;;;;;;;;;1.75;1.75;;;;;27.59;40.77;101255.41;5015195;28;45508;-69
2021/08/16 03:43:35;;;;;;;;;3.00;1.75;;;;;27.59;40.99;101255.41;5015927;28;45316;-69
2021/08/16 03:46:00;;;;;;;;;1.00;1.00;;;;;27.59;41.31;101259.91;5014485;28;45578;-69
2021/08/16 03:48:25;;;;;;;;;1.00;1.00;;;;;27.59;41.04;101249.22;5014029;28;46109;-69
2021/08/16 03:50:51;;;;;;;;;1.00;1.00;;;;;27.60;41.16;101261.56;5014398;28;45417;-70
2021/08/16 03:53:17;;;;;;;;;0.50;0.50;;;;;27.52;40.67;101242.06;5014333;28;45560;-69
2021/08/16 03:55:42;;;;;;;;;1.50;0.25;;;;;27.61;41.06;101249.88;5016195;28;45394;-69
2021/08/16 03:58:08;;;;;;;;;1.50;1.25;;;;;27.60;40.83;101249.03;5000664;28;48369;-69
2021/08/16 04:00:33;;;;;;;;;1.00;1.00;;;;;27.60;40.94;101243.69;5012745;28;45380;-70
2021/08/16 04:02:59;;;;;;;;;1.00;1.00;;;;;27.58;40.59;101239.59;5012561;28;45461;-70
2021/08/16 04:05:24;;;;;;;;;1.00;1.00;;;;;27.58;40.59;101245.75;5014252;28;45497;-69
2021/08/16 04:07:50;;;;;;;;;1.00;0.67;;;;;27.61;40.97;101252.53;5016132;28;46068;-69
2021/08/16 04:10:17;;;;;;;;;1.00;1.00;;;;;27.52;40.66;101242.06;5013847;28;45410;-69
2021/08/16 04:12:43;;;;;;;;;2.00;1.00;;;;;27.61;40.92;101256.00;5014119;28;45407;-69
2021/08/16 04:15:12;;;;;;;;;1.25;1.00;;;;;27.61;40.54;101257.88;5013847;28;45458;-69
2021/08/16 04:17:37;;;;;;;;;1.00;1.00;;;;;27.62;41.17;101256.84;5013612;28;45286;-69
2021/08/16 04:20:04;;;;;;;;;0.33;0.33;;;;;27.62;41.14;101264.84;5015233;28;45303;-69
2021/08/16 04:22:30;;;;;;;;;1.00;1.00;;;;;27.61;41.15;101257.88;5014777;28;45520;-69
2021/08/16 04:24:55;;;;;;;;;1.00;1.00;;;;;27.61;41.13;101264.03;5013678;28;45461;-69
2021/08/16 04:27:21;;;;;;;;;0.50;0.50;;;;;27.61;41.19;101268.56;5013862;28;45250;-70
2021/08/16 04:29:46;;;;;;;;;2.00;0.50;;;;;27.61;41.24;101274.72;5013762;28;45453;-69
2021/08/16 04:32:11;;;;;;;;;0.75;0.75;;;;;27.63;41.05;101272.69;5014210;28;45361;-69
2021/08/16 04:34:37;;;;;;;;;0.00;0.00;;;;;27.60;40.52;101272.25;5015245;28;45464;-69
2021/08/16 04:37:02;;;;;;;;;0.00;0.00;;;;;27.62;40.94;101278.22;5013244;28;46055;-69
2021/08/16 04:39:27;;;;;;;;;0.00;0.00;;;;;27.62;40.92;101281.72;5012215;28;45446;-69
2021/08/16 04:41:53;;;;;;;;;1.25;0.50;;;;;27.61;40.88;101281.94;5012430;28;45277;-70
2021/08/16 04:44:18;;;;;;;;;2.00;1.00;;;;;27.62;40.98;101284.38;5013806;28;45554;-69
2021/08/16 04:46:43;;;;;;;;;1.00;1.00;;;;;27.55;40.98;101266.72;5015231;28;45374;-69
2021/08/16 04:49:09;;;;;;;;;1.00;0.50;;;;;27.55;41.07;101266.72;5013427;28;45403;-70
2021/08/16 04:51:34;;;;;;;;;0.50;0.00;;;;;27.59;40.76;101275.94;5013494;28;45334;-69
2021/08/16 04:54:01;;;;;;;;;0.75;0.00;;;;;27.62;40.79;101287.06;5013725;28;45529;-69
2021/08/16 04:56:26;;;;;;;;;1.00;1.00;;;;;27.57;41.00;101280.69;5013394;28;47297;-69
2021/08/16 04:58:52;;;;;;;;;1.00;1.00;;;;;27.60;41.23;101283.78;5015457;28;45504;-69
2021/08/16 05:01:17;;;;;;;;;0.00;0.00;;;;;27.61;40.96;101281.94;5013066;28;45288;-69
2021/08/16 05:03:42;;;;;;;;;1.25;0.75;;;;;27.61;41.19;101292.63;5013516;28;45265;-69
2021/08/16 05:06:08;;;;;;;;;0.00;0.00;;;;;27.60;41.00;101294.47;5014168;28;46116;-69
2021/08/16 05:08:36;;;;;;;;;1.00;1.00;;;;;27.58;41.36;101288.50;5017095;28;45367;-69
2021/08/16 05:11:03;;;;;;;;;0.00;0.00;;;;;27.52;41.06;101278.66;5018548;28;45325;-69
2021/08/16 05:13:28;;;;;;;;;1.00;1.00;;;;;27.59;41.07;101297.34;5015889;28;45415;-69
2021/08/16 05:15:53;;;;;;;;;0.25;0.25;;;;;27.59;41.02;101294.66;5016339;28;45355;-69
2021/08/16 05:18:19;;;;;;;;;0.25;0.25;;;;;27.60;40.56;101296.31;5015426;28;45367;-69
2021/08/16 05:20:44;;;;;;;;;2.25;1.00;;;;;27.59;41.08;101302.69;5015667;28;45460;-69
2021/08/16 05:23:10;;;;;;;;;1.25;1.00;;;;;27.58;40.67;101293.88;5017646;28;45305;-69
2021/08/16 05:25:35;;;;;;;;;1.00;1.00;;;;;27.58;40.74;101291.19;5017644;28;45827;-69
2021/08/16 05:28:00;;;;;;;;;0.00;0.00;;;;;27.59;41.06;101292.00;5016574;28;46354;-69
2021/08/16 05:30:26;;;;;;;;;2.50;0.25;;;;;27.50;41.14;101283.38;5016245;28;45367;-69
2021/08/16 05:32:51;;;;;;;;;1.00;1.00;;;;;27.59;40.66;101302.69;5016805;28;45551;-69
2021/08/16 05:35:17;;;;;;;;;1.00;1.00;;;;;27.58;41.10;101303.72;5016328;28;46208;-69
2021/08/16 05:37:42;;;;;;;;;1.00;1.00;;;;;27.59;40.74;101313.38;5018429;28;45379;-69
2021/08/16 05:40:08;;;;;;;;;0.00;0.00;;;;;27.58;41.09;101312.56;5016550;28;45504;-69
2021/08/16 05:42:34;;;;;;;;;0.75;0.75;;;;;27.59;41.14;101318.72;5016428;28;45415;-69
2021/08/16 05:45:02;;;;;;;;;0.25;0.25;;;;;27.58;40.79;101312.56;5015744;28;46184;-69
2021/08/16 05:47:27;;;;;;;;;1.50;0.50;;;;;27.59;40.72;101319.53;5016426;28;45509;-69
2021/08/16 05:49:53;;;;;;;;;0.00;0.00;;;;;27.50;41.03;101305.59;5018245;28;45267;-69
2021/08/16 05:52:19;;;;;;;;;1.00;1.00;;;;;27.61;41.21;101322.03;5016341;28;45490;-69
2021/08/16 05:54:44;;;;;;;;;3.25;0.25;;;;;27.52;40.90;101308.03;5015868;28;46323;-69
2021/08/16 05:57:10;;;;;;;;;0.00;0.00;;;;;27.56;41.20;101311.94;5014781;28;45588;-70
2021/08/16 05:59:35;;;;;;;;;3.00;1.00;;;;;27.61;40.72;101322.03;5014573;28;45517;-69
2021/08/16 06:02:00;;;;;;;;;0.00;0.00;;;;;27.62;41.12;101327.16;5017938;28;45566;-69
2021/08/16 06:04:26;;;;;;;;;2.00;0.33;;;;;27.61;41.08;101330.03;5015127;28;46124;-69
2021/08/16 06:06:51;;;;;;;;;0.75;0.75;;;;;27.59;40.84;101332.91;5011708;28;45533;-69
2021/08/16 06:09:16;;;;;;;;;1.00;0.75;;;;;27.61;40.70;101338.06;5016223;28;45493;-69
2021/08/16 06:11:42;;;;;;;;;1.00;1.00;;;;;27.52;40.63;101322.22;5016187;28;45586;-69
2021/08/16 06:14:07;;;;;;;;;1.00;1.00;;;;;27.62;40.50;101345.03;5016666;28;47590;-69
2021/08/16 06:16:32;;;;;;;;;1.33;1.33;;;;;27.59;40.96;101340.09;5016485;28;45312;-69
2021/08/16 06:18:57;;;;;;;;;0.67;0.00;;;;;27.59;41.13;101350.78;5015878;28;45733;-69
2021/08/16 06:21:23;;;;;;;;;0.00;0.00;;;;;27.59;40.56;101356.97;5015931;28;45588;-69
2021/08/16 06:23:48;;;;;;;;;0.00;0.00;;;;;27.62;40.72;101366.41;5015780;28;46975;-69
2021/08/16 06:26:14;;;;;;;;;1.00;1.00;;;;;27.63;41.06;101373.41;5015959;28;45522;-69
2021/08/16 06:28:39;;;;;;;;;1.00;1.00;;;;;27.63;41.11;101370.75;5017280;28;45304;-69
2021/08/16 06:31:05;;;;;;;;;2.00;1.00;;;;;27.62;41.39;101375.25;5015583;28;45526;-69
2021/08/16 06:33:30;;;;;;;;;1.00;1.00;;;;;27.62;40.65;101367.25;5015457;28;45598;-69
2021/08/16 06:35:56;;;;;;;;;0.00;0.00;;;;;27.63;40.36;101370.75;5014114;28;45363;-69
2021/08/16 06:38:22;;;;;;;;;1.00;1.00;;;;;27.61;41.27;101373.59;5015634;28;45385;-69
2021/08/16 06:40:58;;;;;;;;;1.00;1.00;;;;;27.61;40.78;101370.94;5016514;28;45345;-69
2021/08/16 06:43:26;;;;;;;;;1.00;1.00;;;;;27.57;41.00;101376.91;5015037;28;45540;-69
2021/08/16 06:45:52;;;;;;;;;0.67;0.67;;;;;27.61;40.79;101376.28;5015227;28;45420;-69
2021/08/16 06:48:18;;;;;;;;;0.00;0.00;;;;;27.61;41.09;101383.50;5015527;28;45507;-69
2021/08/16 06:50:44;;;;;;;;;1.00;1.00;;;;;27.60;40.87;101380.00;5015359;28;45640;-69
2021/08/16 06:53:13;;;;;;;;;1.33;0.00;;;;;27.47;41.19;101367.44;5016299;28;45474;-69
2021/08/16 06:55:39;;;;;;;;;2.00;0.25;;;;;27.59;40.95;101382.84;5016729;28;45449;-69
2021/08/16 06:58:04;;;;;;;;;1.50;0.50;;;;;27.60;41.29;101387.19;5014846;28;45315;-69
2021/08/16 07:00:30;;;;;;;;;1.00;1.00;;;;;27.52;40.83;101375.69;5015229;28;45662;-69
2021/08/16 07:02:55;;;;;;;;;0.67;0.67;;;;;27.59;41.10;101388.19;5014968;28;47480;-69
2021/08/16 07:05:21;;;;;;;;;0.50;0.50;;;;;27.58;41.16;101390.06;5015204;28;45228;-69
2021/08/16 07:07:47;;;;;;;;;0.25;0.25;;;;;27.58;41.24;101391.91;5017263;28;45539;-69
2021/08/16 07:10:13;;;;;;;;;0.00;0.00;;;;;27.58;40.83;101397.25;5015001;28;45352;-69
2021/08/16 07:12:38;;;;;;;;;1.00;1.00;;;;;27.58;40.68;101405.28;5014614;28;46806;-69
2021/08/16 07:15:04;;;;;;;;;0.75;0.75;;;;;27.60;40.83;101413.91;5013590;28;45367;-69
2021/08/16 07:17:29;;;;;;;;;1.00;1.00;;;;;27.59;41.22;101413.09;5013972;28;45536;-69
2021/08/16 07:19:55;;;;;;;;;1.00;1.00;;;;;27.57;40.89;101400.94;5016858;28;45445;-69
2021/08/16 07:22:20;;;;;;;;;0.00;0.00;;;;;27.57;40.81;101412.47;5014916;28;46076;-69
2021/08/16 07:24:45;;;;;;;;;1.50;0.25;;;;;27.49;41.28;101407.31;5014515;28;45329;-69
2021/08/16 07:27:11;;;;;;;;;0.00;0.00;;;;;27.59;40.81;101431.78;5014339;28;45360;-69
2021/08/16 07:29:37;;;;;;;;;0.00;0.00;;;;;27.60;40.77;101422.75;5013957;28;45393;-69
2021/08/16 07:32:02;;;;;;;;;0.75;0.75;;;;;27.60;41.38;101430.78;5016101;28;47314;-69
2021/08/16 07:34:28;;;;;;;;;2.00;1.00;;;;;27.61;41.22;101435.06;5014956;28;45522;-69
2021/08/16 07:36:54;;;;;;;;;1.50;0.00;;;;;27.61;41.22;101440.44;5014324;28;45580;-69
2021/08/16 07:39:20;;;;;;;;;1.00;1.00;;;;;27.62;40.75;101446.59;5014635;28;45479;-69
2021/08/16 07:41:46;;;;;;;;;1.00;1.00;;;;;27.55;40.87;101441.25;5013838;28;46435;-69
2021/08/16 07:44:11;;;;;;;;;2.00;1.00;;;;;27.57;40.94;101447.22;5015036;28;45560;-69
2021/08/16 07:46:36;;;;;;;;;0.00;0.00;;;;;27.44;41.30;101434.66;5015863;28;45849;-69
2021/08/16 07:49:02;;;;;;;;;0.00;0.00;;;;;27.61;40.87;101463.69;5014292;28;45541;-69
2021/08/16 07:51:27;;;;;;;;;0.00;0.00;;;;;27.64;40.74;101471.25;5014003;28;46942;-70
2021/08/16 07:53:52;;;;;;;;;1.00;1.00;;;;;27.63;41.18;101483.00;5013122;28;45374;-69
2021/08/16 07:56:17;;;;;;;;;0.00;0.00;;;;;27.64;40.80;101476.63;5014351;28;45310;-70
2021/08/16 07:58:43;;;;;;;;;3.00;0.00;;;;;27.62;40.82;101481.34;5014598;28;46464;-69
2021/08/16 08:01:08;;;;;;;;;0.25;0.25;;;;;27.63;40.93;101478.50;5014156;28;46154;-69
2021/08/16 08:03:34;;;;;;;;;1.00;1.00;;;;;27.63;40.93;101483.00;5013927;28;45385;-68
2021/08/16 08:05:59;;;;;;;;;0.67;0.00;;;;;27.64;40.76;101489.97;5014283;28;45371;-68
2021/08/16 08:08:24;;;;;;;;;0.00;0.00;;;;;27.55;41.15;101476.00;5014280;28;45565;-68
2021/08/16 08:10:50;;;;;;;;;0.00;0.00;;;;;27.64;41.46;101498.00;5015590;28;45477;-68
2021/08/16 08:13:15;;;;;;;;;0.00;0.00;;;;;27.63;40.84;101507.88;5013979;28;45325;-70
2021/08/16 08:15:41;;;;;;;;;0.00;0.00;;;;;27.63;41.34;101507.06;5013870;28;45415;-70
2021/08/16 08:18:07;;;;;;;;;3.00;0.00;;;;;27.53;41.47;101496.75;5013847;28;45443;-70
2021/08/16 08:20:32;;;;;;;;;0.00;0.00;;;;;27.62;40.83;101521.44;5013968;28;45972;-70
2021/08/16 08:22:58;;;;;;;;;0.67;0.67;;;;;27.58;40.60;101520.22;5016012;28;45410;-69
2021/08/16 08:25:25;;;;;;;;;0.00;0.00;;;;;27.62;40.82;101532.97;5013548;28;45533;-69
2021/08/16 08:27:50;;;;;;;;;0.00;0.00;;;;;27.63;41.39;101539.97;5013693;28;45444;-70
2021/08/16 08:30:15;;;;;;;;;1.00;1.00;;;;;27.63;40.75;101549.81;5013446;28;45419;-69
2021/08/16 08:32:59;;;;;;;;;0.67;0.00;;;;;27.62;41.22;101546.31;5012420;28;45401;-69
2021/08/16 08:35:24;;;;;;;;;0.33;0.33;;;;;27.59;40.85;101532.53;5013237;28;45314;-70
2021/08/16 08:37:50;;;;;;;;;0.00;0.00;;;;;27.63;40.88;101544.47;5014795;28;45333;-70
2021/08/16 08:40:16;;;;;;;;;0.33;0.00;;;;;27.58;40.81;101528.22;5013016;28;46101;-70
2021/08/16 08:42:52;;;;;;;;;2.00;0.00;;;;;27.58;40.99;101530.91;5013410;28;45432;-69
2021/08/16 08:45:18;;;;;;;;;0.00;0.00;;;;;27.61;41.55;101549.22;5013484;28;45553;-67
2021/08/16 08:47:45;;;;;;;;;1.00;1.00;;;;;27.63;40.89;101549.81;5013579;28;45379;-70
2021/08/16 08:50:16;;;;;;;;;0.00;0.00;;;;;27.65;40.71;101554.97;5013906;28;46132;-70
2021/08/16 08:52:42;;;;;;;;;2.00;1.67;;;;;27.64;41.06;101556.81;4999513;28;45341;-69
2021/08/16 08:55:08;;;;;;;;;2.00;1.00;;;;;27.63;41.13;101569.38;5013251;28;45400;-69
2021/08/16 08:57:36;;;;;;;;;0.00;0.00;;;;;27.64;41.00;101567.50;5002309;28;45486;-70
2021/08/16 09:00:03;;;;;;;;;0.00;0.00;;;;;27.62;41.06;101567.72;5013604;28;46145;-70
2021/08/16 09:02:29;;;;;;;;;0.00;0.00;;;;;27.63;40.79;101576.56;4997388;28;45545;-70
2021/08/16 09:04:55;;;;;;;;;0.00;0.00;;;;;27.64;41.39;101575.50;5015294;28;45406;-70
2021/08/16 09:07:50;;;;;;;;;1.00;0.00;;;;;27.64;40.82;101583.53;5012923;28;45412;-70
2021/08/16 09:10:16;;;;;;;;;1.25;1.25;;;;;27.63;41.40;101579.22;4985025;28;45424;-70
2021/08/16 09:12:43;;;;;;;;;2.25;0.75;;;;;27.63;40.91;101585.41;5011579;28;45305;-69
2021/08/16 09:15:23;;;;;;;;;1.00;1.00;;;;;27.63;40.68;101588.06;5011615;28;45502;-69
2021/08/16 09:17:49;;;;;;;;;0.25;0.25;;;;;27.63;40.68;101588.06;5013225;28;45430;-69
2021/08/16 09:20:17;;;;;;;;;1.00;1.00;;;;;27.63;40.64;101588.06;5013437;28;45551;-70
2021/08/16 09:22:54;;;;;;;;;1.00;1.00;;;;;27.63;41.26;101587.25;5012956;28;45419;-69
2021/08/16 09:25:20;;;;;;;;;2.00;2.00;;;;;27.62;40.79;101588.25;5013159;28;45560;-69
2021/08/16 09:27:47;;;;;;;;;3.00;1.00;;;;;27.65;41.40;101584.38;5012895;28;45370;-70
2021/08/16 09:30:14;;;;;;;;;1.00;1.00;;;;;27.66;41.05;101588.69;5012676;28;47532;-69
2021/08/16 09:32:44;;;;;;;;;0.00;0.00;;;;;27.66;40.95;101586.03;5012958;28;45582;-69
2021/08/16 09:35:14;;;;;;;;;0.75;0.75;;;;;27.66;40.87;101584.19;5013931;28;45288;-70
2021/08/16 09:37:40;;;;;;;;;1.50;1.50;;;;;27.66;40.73;101589.53;5014251;28;45399;-69
2021/08/16 09:40:17;;;;;;;;;1.00;1.00;;;;;27.67;40.52;101590.31;5012620;28;46168;-69
2021/08/16 09:42:47;;;;;;;;;2.00;0.00;;;;;27.67;40.76;101593.81;5012675;28;45500;-69
2021/08/16 09:45:27;;;;;;;;;3.00;2.00;;;;;27.68;41.24;101597.34;5012804;28;45418;-70
2021/08/16 09:47:56;;;;;;;;;1.00;1.00;;;;;27.66;41.19;101602.88;5012936;28;45303;-69
2021/08/16 09:50:22;;;;;;;;;2.75;2.00;;;;;27.68;40.33;101611.53;5012581;28;46921;-69
2021/08/16 09:52:47;;;;;;;;;1.25;1.25;;;;;27.61;41.03;101600.78;5014949;28;45298;-69
2021/08/16 09:55:13;;;;;;;;;3.00;2.00;;;;;27.68;40.94;101608.84;5014727;28;45526;-69
2021/08/16 09:57:39;;;;;;;;;2.00;2.00;;;;;27.69;40.76;101625.72;5016272;28;45300;-69
2021/08/16 10:00:05;;;;;;;;;2.00;2.00;;;;;27.69;41.17;101621.19;5016220;28;46292;-70
2021/08/16 10:02:31;;;;;;;;;1.00;1.00;;;;;27.37;40.93;101578.94;5016187;28;45561;-69
2021/08/16 10:04:58;;;;;;;;;2.00;2.00;;;;;27.70;41.23;101624.69;5013719;28;45436;-69
2021/08/16 10:07:28;;;;;;;;;2.75;1.25;;;;;27.70;40.45;101632.69;5015683;28;45970;-69
2021/08/16 10:09:59;;;;;;;;;3.50;3.00;;;;;27.69;40.28;101633.75;5015685;28;47020;-69
2021/08/16 10:12:26;;;;;;;;;2.00;2.00;;;;;27.69;40.40;101637.22;5015916;28;45379;-69
2021/08/16 10:14:53;;;;;;;;;2.75;1.25;;;;;27.70;41.07;101638.03;5015772;28;45366;-69
2021/08/16 10:17:23;;;;;;;;;2.00;2.00;;;;;27.58;41.03;101622.59;5016023;28;45393;-69
2021/08/16 10:19:52;;;;;;;;;1.75;1.75;;;;;27.70;40.57;101649.56;5017477;28;45364;-69
2021/08/16 10:22:17;;;;;;;;;3.25;1.50;;;;;27.71;41.02;101661.09;5015722;28;45505;-69
2021/08/16 10:24:43;;;;;;;;;4.25;3.25;;;;;27.70;40.31;101654.91;5015561;28;45549;-69
2021/08/16 10:27:09;;;;;;;;;2.25;2.25;;;;;27.71;40.41;101658.41;4999845;28;45415;-69
2021/08/16 10:29:37;;;;;;;;;3.00;2.00;;;;;27.70;40.58;101662.94;5014191;28;45506;-69
2021/08/16 10:32:07;;;;;;;;;3.50;2.50;;;;;27.69;40.90;101671.16;5017004;28;45339;-69
2021/08/16 10:34:37;;;;;;;;;3.00;3.00;;;;;27.68;40.18;101675.69;5014558;28;45307;-69
2021/08/16 10:37:11;;;;;;;;;3.00;3.00;;;;;27.69;41.01;101669.28;5015241;28;45343;-69
2021/08/16 10:39:40;;;;;;;;;4.00;4.00;;;;;27.70;40.82;101670.13;5015162;28;46387;-69
2021/08/16 10:42:17;;;;;;;;;3.50;3.50;;;;;27.70;40.38;101678.16;5015090;28;45422;-69
2021/08/16 10:44:45;;;;;;;;;3.25;3.25;;;;;27.69;40.97;101673.84;5015345;28;47695;-69
2021/08/16 10:47:24;;;;;;;;;4.25;4.00;;;;;27.69;40.31;101679.19;5016120;28;45431;-69
2021/08/16 10:49:49;;;;;;;;;5.00;3.00;;;;;27.62;40.75;101674.63;5015569;28;47020;-69
2021/08/16 10:52:20;;;;;;;;;3.50;3.50;;;;;27.70;40.92;101684.31;5015050;28;45627;-69
2021/08/16 10:54:46;;;;;;;;;4.25;4.00;;;;;27.63;40.44;101672.78;5015219;28;45446;-69
2021/08/16 10:57:11;;;;;;;;;3.25;3.00;;;;;27.67;40.40;101681.22;5015163;28;45273;-69
2021/08/16 10:59:37;;;;;;;;;5.50;3.75;;;;;27.70;40.36;101678.97;5015121;28;46246;-69
2021/08/16 11:02:02;;;;;;;;;5.00;5.00;;;;;27.70;40.72;101684.31;5016894;28;45363;-70
2021/08/16 11:04:36;;;;;;;;;3.75;3.75;;;;;27.70;40.20;101678.97;5014072;28;45392;-69
2021/08/16 11:07:07;;;;;;;;;4.00;3.50;;;;;27.72;40.19;101692.13;5015087;28;45440;-69
2021/08/16 11:09:34;;;;;;;;;4.50;4.00;;;;;27.70;40.10;101687.00;5013389;28;47054;-69
2021/08/16 11:12:10;;;;;;;;;4.25;4.00;;;;;27.69;40.31;101690.69;5013587;28;45300;-69
2021/08/16 11:14:39;;;;;;;;;5.50;4.50;;;;;27.61;40.78;101682.84;5000069;28;45296;-70
2021/08/16 11:17:05;;;;;;;;;4.50;4.25;;;;;27.71;40.72;101693.97;5016424;28;45458;-70
2021/08/16 11:19:45;;;;;;;;;6.50;5.25;;;;;27.72;40.67;101695.63;5014970;28;45710;-69